sensor_id;sensor_type;location;lat;lon;timestamp;P1;durP1;ratioP1;P2;durP2;ratioP2
26038;SDS011;13815;52.374;4.882;2023-02-28T00:02:13;6.13;;;5.93;;
26038;SDS011;13815;52.374;4.882;2023-02-28T00:04:38;6.15;;;5.95;;
26038;SDS011;13815;52.374;4.882;2023-02-28T00:07:04;16.23;;;7.05;;
26038;SDS011;13815;52.374;4.882;2023-02-28T00:09:30;5.68;;;5.57;;
26038;SDS011;13815;52.374;4.882;2023-02-28T00:11:58;6.32;;;5.85;;
26038;SDS011;13815;52.374;4.882;2023-02-28T00:14:23;11.75;;;6.20;;
26038;SDS011;13815;52.374;4.882;2023-02-28T00:16:49;4.70;;;4.60;;
26038;SDS011;13815;52.374;4.882;2023-02-28T00:19:14;4.40;;;4.30;;
26038;SDS011;13815;52.374;4.882;2023-02-28T00:21:39;4.40;;;4.30;;
26038;SDS011;13815;52.374;4.882;2023-02-28T00:24:06;4.18;;;4.03;;
26038;SDS011;13815;52.374;4.882;2023-02-28T00:26:31;3.70;;;3.60;;
26038;SDS011;13815;52.374;4.882;2023-02-28T00:28:57;5.85;;;3.63;;
26038;SDS011;13815;52.374;4.882;2023-02-28T00:31:23;2.80;;;2.70;;
26038;SDS011;13815;52.374;4.882;2023-02-28T00:33:48;4.00;;;2.55;;
26038;SDS011;13815;52.374;4.882;2023-02-28T00:36:15;2.33;;;2.33;;
26038;SDS011;13815;52.374;4.882;2023-02-28T00:38:41;2.50;;;2.40;;
26038;SDS011;13815;52.374;4.882;2023-02-28T00:41:06;4.88;;;2.35;;
26038;SDS011;13815;52.374;4.882;2023-02-28T00:43:35;1.75;;;1.75;;
26038;SDS011;13815;52.374;4.882;2023-02-28T00:46:05;1.60;;;1.60;;
26038;SDS011;13815;52.374;4.882;2023-02-28T00:48:31;10.73;;;2.85;;
26038;SDS011;13815;52.374;4.882;2023-02-28T00:50:57;1.50;;;1.50;;
26038;SDS011;13815;52.374;4.882;2023-02-28T00:53:22;1.67;;;1.63;;
26038;SDS011;13815;52.374;4.882;2023-02-28T00:55:48;2.58;;;2.38;;
26038;SDS011;13815;52.374;4.882;2023-02-28T00:58:14;1.80;;;1.70;;
26038;SDS011;13815;52.374;4.882;2023-02-28T01:00:39;3.08;;;1.50;;
26038;SDS011;13815;52.374;4.882;2023-02-28T01:03:05;0.80;;;0.80;;
26038;SDS011;13815;52.374;4.882;2023-02-28T01:05:30;2.60;;;1.05;;
26038;SDS011;13815;52.374;4.882;2023-02-28T01:07:56;7.25;;;1.52;;
26038;SDS011;13815;52.374;4.882;2023-02-28T01:10:24;0.80;;;0.80;;
26038;SDS011;13815;52.374;4.882;2023-02-28T01:12:50;0.90;;;0.90;;
26038;SDS011;13815;52.374;4.882;2023-02-28T01:15:15;5.15;;;1.10;;
26038;SDS011;13815;52.374;4.882;2023-02-28T01:17:41;0.50;;;0.50;;
26038;SDS011;13815;52.374;4.882;2023-02-28T01:20:06;0.43;;;0.43;;
26038;SDS011;13815;52.374;4.882;2023-02-28T01:22:34;9.32;;;1.25;;
26038;SDS011;13815;52.374;4.882;2023-02-28T01:24:59;0.80;;;0.80;;
26038;SDS011;13815;52.374;4.882;2023-02-28T01:27:24;3.20;;;0.75;;
26038;SDS011;13815;52.374;4.882;2023-02-28T01:29:51;0.60;;;0.60;;
26038;SDS011;13815;52.374;4.882;2023-02-28T01:32:16;0.60;;;0.60;;
26038;SDS011;13815;52.374;4.882;2023-02-28T01:34:42;5.65;;;0.98;;
26038;SDS011;13815;52.374;4.882;2023-02-28T01:37:07;0.32;;;0.32;;
26038;SDS011;13815;52.374;4.882;2023-02-28T01:39:32;0.40;;;0.40;;
26038;SDS011;13815;52.374;4.882;2023-02-28T01:41:58;6.82;;;0.82;;
26038;SDS011;13815;52.374;4.882;2023-02-28T01:47:22;8.10;;;0.95;;
26038;SDS011;13815;52.374;4.882;2023-02-28T01:49:58;0.30;;;0.30;;
26038;SDS011;13815;52.374;4.882;2023-02-28T01:52:23;0.57;;;0.52;;
26038;SDS011;13815;52.374;4.882;2023-02-28T01:54:53;0.30;;;0.30;;
26038;SDS011;13815;52.374;4.882;2023-02-28T01:57:22;0.57;;;0.50;;
26038;SDS011;13815;52.374;4.882;2023-02-28T02:02:18;0.45;;;0.45;;
26038;SDS011;13815;52.374;4.882;2023-02-28T02:04:58;5.28;;;0.85;;
26038;SDS011;13815;52.374;4.882;2023-02-28T02:07:26;0.30;;;0.30;;
26038;SDS011;13815;52.374;4.882;2023-02-28T02:21:04;0.30;;;0.30;;
26038;SDS011;13815;52.374;4.882;2023-02-28T02:23:54;0.30;;;0.30;;
26038;SDS011;13815;52.374;4.882;2023-02-28T02:37:57;0.20;;;0.20;;
26038;SDS011;13815;52.374;4.882;2023-02-28T02:40:32;0.28;;;0.28;;
26038;SDS011;13815;52.374;4.882;2023-02-28T02:43:13;12.80;;;1.15;;
26038;SDS011;13815;52.374;4.882;2023-02-28T02:45:42;0.20;;;0.20;;
26038;SDS011;13815;52.374;4.882;2023-02-28T02:48:14;11.07;;;2.20;;
26038;SDS011;13815;52.374;4.882;2023-02-28T02:50:50;0.57;;;0.57;;
26038;SDS011;13815;52.374;4.882;2023-02-28T02:53:18;7.97;;;0.82;;
26038;SDS011;13815;52.374;4.882;2023-02-28T02:55:48;0.35;;;0.35;;
26038;SDS011;13815;52.374;4.882;2023-02-28T02:58:18;0.30;;;0.30;;
26038;SDS011;13815;52.374;4.882;2023-02-28T03:00:46;8.85;;;1.15;;
26038;SDS011;13815;52.374;4.882;2023-02-28T03:03:15;0.60;;;0.60;;
26038;SDS011;13815;52.374;4.882;2023-02-28T03:05:49;0.47;;;0.47;;
26038;SDS011;13815;52.374;4.882;2023-02-28T03:08:15;0.30;;;0.30;;
26038;SDS011;13815;52.374;4.882;2023-02-28T03:10:42;0.60;;;0.60;;
26038;SDS011;13815;52.374;4.882;2023-02-28T03:16:10;0.43;;;0.43;;
26038;SDS011;13815;52.374;4.882;2023-02-28T03:18:36;1.20;;;0.50;;
26038;SDS011;13815;52.374;4.882;2023-02-28T03:21:15;7.28;;;1.13;;
26038;SDS011;13815;52.374;4.882;2023-02-28T03:26:57;0.30;;;0.30;;
26038;SDS011;13815;52.374;4.882;2023-02-28T03:29:28;1.25;;;0.68;;
26038;SDS011;13815;52.374;4.882;2023-02-28T03:32:02;0.40;;;0.40;;
26038;SDS011;13815;52.374;4.882;2023-02-28T03:34:37;3.72;;;0.88;;
26038;SDS011;13815;52.374;4.882;2023-02-28T03:37:06;0.38;;;0.38;;
26038;SDS011;13815;52.374;4.882;2023-02-28T03:39:42;1.25;;;0.57;;
26038;SDS011;13815;52.374;4.882;2023-02-28T03:42:29;0.40;;;0.40;;
26038;SDS011;13815;52.374;4.882;2023-02-28T03:45:00;0.52;;;0.52;;
26038;SDS011;13815;52.374;4.882;2023-02-28T03:47:29;0.90;;;0.90;;
26038;SDS011;13815;52.374;4.882;2023-02-28T03:50:10;2.83;;;0.90;;
26038;SDS011;13815;52.374;4.882;2023-02-28T03:55:47;0.52;;;0.52;;
26038;SDS011;13815;52.374;4.882;2023-02-28T03:58:29;5.85;;;1.05;;
26038;SDS011;13815;52.374;4.882;2023-02-28T04:00:58;0.60;;;0.60;;
26038;SDS011;13815;52.374;4.882;2023-02-28T04:03:32;7.72;;;1.65;;
26038;SDS011;13815;52.374;4.882;2023-02-28T04:06:05;0.80;;;0.80;;
26038;SDS011;13815;52.374;4.882;2023-02-28T04:08:37;4.13;;;1.10;;
26038;SDS011;13815;52.374;4.882;2023-02-28T04:11:06;3.40;;;1.08;;
26038;SDS011;13815;52.374;4.882;2023-02-28T04:13:38;1.10;;;1.10;;
26038;SDS011;13815;52.374;4.882;2023-02-28T04:16:06;1.38;;;1.38;;
26038;SDS011;13815;52.374;4.882;2023-02-28T04:18:37;1.50;;;1.50;;
26038;SDS011;13815;52.374;4.882;2023-02-28T04:21:03;1.60;;;1.60;;
26038;SDS011;13815;52.374;4.882;2023-02-28T04:23:29;1.80;;;1.80;;
26038;SDS011;13815;52.374;4.882;2023-02-28T04:25:55;2.30;;;2.30;;
26038;SDS011;13815;52.374;4.882;2023-02-28T04:28:22;2.60;;;2.60;;
26038;SDS011;13815;52.374;4.882;2023-02-28T04:30:47;2.60;;;2.60;;
26038;SDS011;13815;52.374;4.882;2023-02-28T04:33:12;2.60;;;2.60;;
26038;SDS011;13815;52.374;4.882;2023-02-28T04:35:38;7.93;;;3.45;;
26038;SDS011;13815;52.374;4.882;2023-02-28T04:38:06;3.00;;;2.97;;
26038;SDS011;13815;52.374;4.882;2023-02-28T04:40:31;3.80;;;3.50;;
26038;SDS011;13815;52.374;4.882;2023-02-28T04:42:56;5.22;;;3.70;;
26038;SDS011;13815;52.374;4.882;2023-02-28T04:45:22;3.60;;;3.50;;
26038;SDS011;13815;52.374;4.882;2023-02-28T04:47:47;4.28;;;4.18;;
26038;SDS011;13815;52.374;4.882;2023-02-28T04:50:13;4.63;;;4.10;;
26038;SDS011;13815;52.374;4.882;2023-02-28T04:52:38;3.40;;;3.30;;
26038;SDS011;13815;52.374;4.882;2023-02-28T04:55:04;3.70;;;3.60;;
26038;SDS011;13815;52.374;4.882;2023-02-28T04:57:30;4.03;;;3.60;;
26038;SDS011;13815;52.374;4.882;2023-02-28T04:59:55;3.13;;;3.03;;
26038;SDS011;13815;52.374;4.882;2023-02-28T05:02:21;3.30;;;3.20;;
26038;SDS011;13815;52.374;4.882;2023-02-28T05:04:46;3.35;;;3.25;;
26038;SDS011;13815;52.374;4.882;2023-02-28T05:07:11;3.10;;;3.00;;
26038;SDS011;13815;52.374;4.882;2023-02-28T05:09:37;2.88;;;2.88;;
26038;SDS011;13815;52.374;4.882;2023-02-28T05:12:02;3.38;;;3.28;;
26038;SDS011;13815;52.374;4.882;2023-02-28T05:14:30;3.20;;;3.10;;
26038;SDS011;13815;52.374;4.882;2023-02-28T05:16:55;7.47;;;3.53;;
26038;SDS011;13815;52.374;4.882;2023-02-28T05:19:21;3.05;;;2.95;;
26038;SDS011;13815;52.374;4.882;2023-02-28T05:21:50;3.20;;;3.10;;
26038;SDS011;13815;52.374;4.882;2023-02-28T05:24:17;8.35;;;3.67;;
26038;SDS011;13815;52.374;4.882;2023-02-28T05:26:47;5.30;;;3.72;;
26038;SDS011;13815;52.374;4.882;2023-02-28T05:29:16;3.30;;;3.20;;
26038;SDS011;13815;52.374;4.882;2023-02-28T05:31:41;3.60;;;3.50;;
26038;SDS011;13815;52.374;4.882;2023-02-28T05:34:07;4.15;;;4.05;;
26038;SDS011;13815;52.374;4.882;2023-02-28T05:36:32;5.30;;;4.20;;
26038;SDS011;13815;52.374;4.882;2023-02-28T05:38:58;4.10;;;4.00;;
26038;SDS011;13815;52.374;4.882;2023-02-28T05:41:23;4.10;;;4.00;;
26038;SDS011;13815;52.374;4.882;2023-02-28T05:43:49;6.43;;;4.35;;
26038;SDS011;13815;52.374;4.882;2023-02-28T05:46:15;3.75;;;3.65;;
26038;SDS011;13815;52.374;4.882;2023-02-28T05:48:42;3.53;;;3.42;;
26038;SDS011;13815;52.374;4.882;2023-02-28T05:51:08;9.15;;;4.85;;
26038;SDS011;13815;52.374;4.882;2023-02-28T05:53:33;3.33;;;3.22;;
26038;SDS011;13815;52.374;4.882;2023-02-28T05:56:00;3.25;;;2.80;;
26038;SDS011;13815;52.374;4.882;2023-02-28T05:58:25;7.43;;;2.75;;
26038;SDS011;13815;52.374;4.882;2023-02-28T06:00:56;1.40;;;1.40;;
26038;SDS011;13815;52.374;4.882;2023-02-28T06:03:22;1.35;;;1.35;;
26038;SDS011;13815;52.374;4.882;2023-02-28T06:05:47;3.13;;;1.50;;
26038;SDS011;13815;52.374;4.882;2023-02-28T06:08:12;3.70;;;1.58;;
26038;SDS011;13815;52.374;4.882;2023-02-28T06:10:38;0.90;;;0.90;;
26038;SDS011;13815;52.374;4.882;2023-02-28T06:13:03;0.90;;;0.90;;
26038;SDS011;13815;52.374;4.882;2023-02-28T06:15:29;0.77;;;0.77;;
26038;SDS011;13815;52.374;4.882;2023-02-28T06:17:54;2.17;;;1.00;;
26038;SDS011;13815;52.374;4.882;2023-02-28T06:20:21;0.80;;;0.80;;
26038;SDS011;13815;52.374;4.882;2023-02-28T06:22:47;0.82;;;0.82;;
26038;SDS011;13815;52.374;4.882;2023-02-28T06:25:13;8.23;;;1.48;;
26038;SDS011;13815;52.374;4.882;2023-02-28T06:27:38;0.40;;;0.40;;
26038;SDS011;13815;52.374;4.882;2023-02-28T06:30:04;0.57;;;0.57;;
26038;SDS011;13815;52.374;4.882;2023-02-28T06:32:30;8.30;;;1.05;;
26038;SDS011;13815;52.374;4.882;2023-02-28T06:34:55;0.60;;;0.60;;
26038;SDS011;13815;52.374;4.882;2023-02-28T06:37:22;0.35;;;0.35;;
26038;SDS011;13815;52.374;4.882;2023-02-28T06:39:53;3.90;;;0.77;;
26038;SDS011;13815;52.374;4.882;2023-02-28T06:42:21;0.20;;;0.20;;
26038;SDS011;13815;52.374;4.882;2023-02-28T06:44:49;6.07;;;0.88;;
26038;SDS011;13815;52.374;4.882;2023-02-28T06:47:15;1.00;;;1.00;;
26038;SDS011;13815;52.374;4.882;2023-02-28T06:49:40;0.20;;;0.20;;
26038;SDS011;13815;52.374;4.882;2023-02-28T06:52:06;7.95;;;1.02;;
26038;SDS011;13815;52.374;4.882;2023-02-28T06:54:31;0.50;;;0.50;;
26038;SDS011;13815;52.374;4.882;2023-02-28T06:56:57;0.45;;;0.43;;
26038;SDS011;13815;52.374;4.882;2023-02-28T06:59:23;10.98;;;1.20;;
26038;SDS011;13815;52.374;4.882;2023-02-28T07:01:48;3.03;;;0.60;;
26038;SDS011;13815;52.374;4.882;2023-02-28T07:04:14;0.30;;;0.30;;
26038;SDS011;13815;52.374;4.882;2023-02-28T07:06:39;0.40;;;0.40;;
26038;SDS011;13815;52.374;4.882;2023-02-28T07:09:05;0.30;;;0.30;;
26038;SDS011;13815;52.374;4.882;2023-02-28T07:11:30;3.25;;;0.55;;
26038;SDS011;13815;52.374;4.882;2023-02-28T07:13:56;4.40;;;0.65;;
26038;SDS011;13815;52.374;4.882;2023-02-28T07:16:22;0.40;;;0.40;;
26038;SDS011;13815;52.374;4.882;2023-02-28T07:18:48;0.70;;;0.70;;
26038;SDS011;13815;52.374;4.882;2023-02-28T07:21:14;8.00;;;0.85;;
26038;SDS011;13815;52.374;4.882;2023-02-28T07:23:40;0.43;;;0.43;;
26038;SDS011;13815;52.374;4.882;2023-02-28T07:26:07;0.20;;;0.20;;
26038;SDS011;13815;52.374;4.882;2023-02-28T07:28:36;3.25;;;0.57;;
26038;SDS011;13815;52.374;4.882;2023-02-28T07:31:05;0.30;;;0.30;;
26038;SDS011;13815;52.374;4.882;2023-02-28T07:33:31;8.02;;;1.30;;
26038;SDS011;13815;52.374;4.882;2023-02-28T07:36:00;0.20;;;0.20;;
26038;SDS011;13815;52.374;4.882;2023-02-28T07:38:29;1.23;;;1.13;;
26038;SDS011;13815;52.374;4.882;2023-02-28T07:40:54;4.93;;;0.93;;
26038;SDS011;13815;52.374;4.882;2023-02-28T07:43:19;0.30;;;0.30;;
26038;SDS011;13815;52.374;4.882;2023-02-28T07:45:45;2.65;;;0.82;;
26038;SDS011;13815;52.374;4.882;2023-02-28T07:48:11;7.18;;;0.68;;
26038;SDS011;13815;52.374;4.882;2023-02-28T07:50:36;1.65;;;1.55;;
26038;SDS011;13815;52.374;4.882;2023-02-28T07:53:02;2.60;;;0.43;;
26038;SDS011;13815;52.374;4.882;2023-02-28T07:55:27;4.90;;;0.90;;
26038;SDS011;13815;52.374;4.882;2023-02-28T07:57:53;4.18;;;0.95;;
26038;SDS011;13815;52.374;4.882;2023-02-28T08:00:19;5.07;;;0.80;;
26038;SDS011;13815;52.374;4.882;2023-02-28T08:02:44;5.38;;;1.05;;
26038;SDS011;13815;52.374;4.882;2023-02-28T08:05:10;0.40;;;0.40;;
26038;SDS011;13815;52.374;4.882;2023-02-28T08:07:35;4.95;;;0.90;;
26038;SDS011;13815;52.374;4.882;2023-02-28T08:10:01;1.10;;;1.00;;
26038;SDS011;13815;52.374;4.882;2023-02-28T08:12:28;0.45;;;0.45;;
26038;SDS011;13815;52.374;4.882;2023-02-28T08:14:53;6.28;;;0.75;;
26038;SDS011;13815;52.374;4.882;2023-02-28T08:17:19;1.00;;;0.77;;
26038;SDS011;13815;52.374;4.882;2023-02-28T08:19:45;0.90;;;0.45;;
26038;SDS011;13815;52.374;4.882;2023-02-28T08:22:11;5.43;;;0.73;;
26038;SDS011;13815;52.374;4.882;2023-02-28T08:24:37;1.08;;;0.52;;
26038;SDS011;13815;52.374;4.882;2023-02-28T08:27:02;0.60;;;0.30;;
26038;SDS011;13815;52.374;4.882;2023-02-28T08:29:30;7.13;;;1.08;;
26038;SDS011;13815;52.374;4.882;2023-02-28T08:31:56;1.23;;;0.70;;
26038;SDS011;13815;52.374;4.882;2023-02-28T08:34:22;0.45;;;0.35;;
26038;SDS011;13815;52.374;4.882;2023-02-28T08:36:48;0.38;;;0.30;;
26038;SDS011;13815;52.374;4.882;2023-02-28T08:39:13;2.85;;;0.45;;
26038;SDS011;13815;52.374;4.882;2023-02-28T08:41:38;3.38;;;0.60;;
26038;SDS011;13815;52.374;4.882;2023-02-28T08:44:04;2.13;;;0.68;;
26038;SDS011;13815;52.374;4.882;2023-02-28T08:46:30;0.55;;;0.40;;
26038;SDS011;13815;52.374;4.882;2023-02-28T08:48:56;5.05;;;1.05;;
26038;SDS011;13815;52.374;4.882;2023-02-28T08:51:25;0.40;;;0.30;;
26038;SDS011;13815;52.374;4.882;2023-02-28T08:53:54;1.13;;;0.95;;
26038;SDS011;13815;52.374;4.882;2023-02-28T08:56:20;0.50;;;0.40;;
26038;SDS011;13815;52.374;4.882;2023-02-28T08:58:46;0.30;;;0.20;;
26038;SDS011;13815;52.374;4.882;2023-02-28T09:01:14;4.85;;;0.52;;
26038;SDS011;13815;52.374;4.882;2023-02-28T09:03:43;0.40;;;0.22;;
26038;SDS011;13815;52.374;4.882;2023-02-28T09:06:11;0.88;;;0.65;;
26038;SDS011;13815;52.374;4.882;2023-02-28T09:08:37;8.73;;;1.48;;
26038;SDS011;13815;52.374;4.882;2023-02-28T09:11:02;0.10;;;0.00;;
26038;SDS011;13815;52.374;4.882;2023-02-28T09:13:28;0.70;;;0.43;;
26038;SDS011;13815;52.374;4.882;2023-02-28T09:15:55;8.80;;;1.08;;
26038;SDS011;13815;52.374;4.882;2023-02-28T09:18:22;1.45;;;0.95;;
26038;SDS011;13815;52.374;4.882;2023-02-28T09:20:48;0.30;;;0.20;;
26038;SDS011;13815;52.374;4.882;2023-02-28T09:23:13;5.95;;;0.82;;
26038;SDS011;13815;52.374;4.882;2023-02-28T09:25:44;0.90;;;0.57;;
26038;SDS011;13815;52.374;4.882;2023-02-28T09:28:11;0.63;;;0.40;;
26038;SDS011;13815;52.374;4.882;2023-02-28T09:30:36;7.43;;;1.45;;
26038;SDS011;13815;52.374;4.882;2023-02-28T09:33:02;1.05;;;0.60;;
26038;SDS011;13815;52.374;4.882;2023-02-28T09:35:28;5.78;;;0.73;;
26038;SDS011;13815;52.374;4.882;2023-02-28T09:37:55;1.83;;;0.80;;
26038;SDS011;13815;52.374;4.882;2023-02-28T09:40:24;3.17;;;1.10;;
26038;SDS011;13815;52.374;4.882;2023-02-28T09:42:51;20.08;;;1.95;;
26038;SDS011;13815;52.374;4.882;2023-02-28T09:45:26;0.82;;;0.52;;
26038;SDS011;13815;52.374;4.882;2023-02-28T09:47:56;6.70;;;0.90;;
26038;SDS011;13815;52.374;4.882;2023-02-28T09:52:58;0.50;;;0.50;;
26038;SDS011;13815;52.374;4.882;2023-02-28T09:55:34;11.63;;;1.55;;
26038;SDS011;13815;52.374;4.882;2023-02-28T09:58:02;1.85;;;1.40;;
26038;SDS011;13815;52.374;4.882;2023-02-28T10:00:39;2.88;;;1.77;;
26038;SDS011;13815;52.374;4.882;2023-02-28T10:08:34;8.73;;;3.13;;
26038;SDS011;13815;52.374;4.882;2023-02-28T10:11:16;2.10;;;2.00;;
26038;SDS011;13815;52.374;4.882;2023-02-28T10:13:56;2.97;;;2.75;;
26038;SDS011;13815;52.374;4.882;2023-02-28T10:16:35;7.43;;;3.30;;
26038;SDS011;13815;52.374;4.882;2023-02-28T10:19:16;5.85;;;3.42;;
26038;SDS011;13815;52.374;4.882;2023-02-28T10:21:44;4.40;;;4.10;;
26038;SDS011;13815;52.374;4.882;2023-02-28T10:24:16;3.60;;;3.38;;
26038;SDS011;13815;52.374;4.882;2023-02-28T10:26:46;4.57;;;4.18;;
26038;SDS011;13815;52.374;4.882;2023-02-28T10:29:14;10.77;;;4.30;;
26038;SDS011;13815;52.374;4.882;2023-02-28T10:31:40;7.38;;;4.13;;
26038;SDS011;13815;52.374;4.882;2023-02-28T10:34:05;4.35;;;4.00;;
26038;SDS011;13815;52.374;4.882;2023-02-28T10:36:31;4.40;;;4.20;;
26038;SDS011;13815;52.374;4.882;2023-02-28T10:38:56;9.82;;;5.35;;
26038;SDS011;13815;52.374;4.882;2023-02-28T10:41:29;5.30;;;5.00;;
26038;SDS011;13815;52.374;4.882;2023-02-28T10:46:54;8.90;;;5.97;;
26038;SDS011;13815;52.374;4.882;2023-02-28T10:49:23;13.70;;;6.97;;
26038;SDS011;13815;52.374;4.882;2023-02-28T10:51:52;7.40;;;6.82;;
26038;SDS011;13815;52.374;4.882;2023-02-28T10:54:23;10.43;;;8.10;;
26038;SDS011;13815;52.374;4.882;2023-02-28T10:59:43;9.20;;;8.80;;
26038;SDS011;13815;52.374;4.882;2023-02-28T11:04:56;10.85;;;10.25;;
26038;SDS011;13815;52.374;4.882;2023-02-28T11:07:22;11.18;;;10.35;;
26038;SDS011;13815;52.374;4.882;2023-02-28T11:09:49;12.40;;;11.35;;
26038;SDS011;13815;52.374;4.882;2023-02-28T11:12:32;12.15;;;11.57;;
26038;SDS011;13815;52.374;4.882;2023-02-28T11:15:26;14.80;;;13.50;;
26038;SDS011;13815;52.374;4.882;2023-02-28T11:17:59;17.63;;;15.95;;
26038;SDS011;13815;52.374;4.882;2023-02-28T11:20:30;21.50;;;19.80;;
26038;SDS011;13815;52.374;4.882;2023-02-28T11:22:57;27.17;;;24.48;;
26038;SDS011;13815;52.374;4.882;2023-02-28T11:25:24;32.90;;;27.00;;
26038;SDS011;13815;52.374;4.882;2023-02-28T11:27:53;31.48;;;27.48;;
26038;SDS011;13815;52.374;4.882;2023-02-28T11:30:38;37.33;;;27.10;;
26038;SDS011;13815;52.374;4.882;2023-02-28T11:35:58;37.45;;;28.67;;
26038;SDS011;13815;52.374;4.882;2023-02-28T11:38:29;42.53;;;28.50;;
26038;SDS011;13815;52.374;4.882;2023-02-28T11:46:53;41.80;;;29.45;;
26038;SDS011;13815;52.374;4.882;2023-02-28T11:49:31;43.88;;;29.13;;
26038;SDS011;13815;52.374;4.882;2023-02-28T11:57:39;60.95;;;32.80;;
26038;SDS011;13815;52.374;4.882;2023-02-28T12:05:57;58.03;;;32.67;;
26038;SDS011;13815;52.374;4.882;2023-02-28T12:08:47;55.65;;;31.10;;
26038;SDS011;13815;52.374;4.882;2023-02-28T12:14:12;60.97;;;33.03;;
26038;SDS011;13815;52.374;4.882;2023-02-28T12:19:42;55.60;;;33.15;;
26038;SDS011;13815;52.374;4.882;2023-02-28T12:22:31;60.30;;;33.67;;
26038;SDS011;13815;52.374;4.882;2023-02-28T12:27:39;60.92;;;33.63;;
26038;SDS011;13815;52.374;4.882;2023-02-28T12:30:14;56.97;;;34.13;;
26038;SDS011;13815;52.374;4.882;2023-02-28T12:32:48;57.63;;;33.90;;
26038;SDS011;13815;52.374;4.882;2023-02-28T12:35:19;58.15;;;33.95;;
26038;SDS011;13815;52.374;4.882;2023-02-28T12:40:44;57.03;;;31.88;;
26038;SDS011;13815;52.374;4.882;2023-02-28T12:43:13;59.67;;;33.22;;
26038;SDS011;13815;52.374;4.882;2023-02-28T12:45:41;59.38;;;32.28;;
26038;SDS011;13815;52.374;4.882;2023-02-28T12:48:11;65.05;;;33.20;;
26038;SDS011;13815;52.374;4.882;2023-02-28T12:50:40;58.65;;;33.35;;
26038;SDS011;13815;52.374;4.882;2023-02-28T12:53:07;68.00;;;37.70;;
26038;SDS011;13815;52.374;4.882;2023-02-28T12:55:49;61.42;;;36.72;;
26038;SDS011;13815;52.374;4.882;2023-02-28T12:58:20;62.00;;;33.55;;
26038;SDS011;13815;52.374;4.882;2023-02-28T13:09:27;61.88;;;36.13;;
26038;SDS011;13815;52.374;4.882;2023-02-28T13:11:54;66.78;;;38.30;;
26038;SDS011;13815;52.374;4.882;2023-02-28T13:14:25;62.13;;;36.22;;
26038;SDS011;13815;52.374;4.882;2023-02-28T13:19:43;63.92;;;38.22;;
26038;SDS011;13815;52.374;4.882;2023-02-28T13:22:18;72.68;;;39.80;;
26038;SDS011;13815;52.374;4.882;2023-02-28T13:24:53;63.80;;;37.45;;
26038;SDS011;13815;52.374;4.882;2023-02-28T13:27:23;70.60;;;38.42;;
26038;SDS011;13815;52.374;4.882;2023-02-28T13:29:56;62.13;;;36.55;;
26038;SDS011;13815;52.374;4.882;2023-02-28T13:39:53;68.82;;;35.95;;
26038;SDS011;13815;52.374;4.882;2023-02-28T13:42:35;66.57;;;37.20;;
26038;SDS011;13815;52.374;4.882;2023-02-28T13:47:33;59.58;;;34.83;;
26038;SDS011;13815;52.374;4.882;2023-02-28T13:50:22;72.55;;;38.00;;
26038;SDS011;13815;52.374;4.882;2023-02-28T13:55:34;66.50;;;34.70;;
26038;SDS011;13815;52.374;4.882;2023-02-28T13:58:10;59.97;;;36.05;;
26038;SDS011;13815;52.374;4.882;2023-02-28T14:06:35;67.68;;;39.28;;
26038;SDS011;13815;52.374;4.882;2023-02-28T14:11:53;64.25;;;35.38;;
26038;SDS011;13815;52.374;4.882;2023-02-28T14:16:59;71.05;;;40.83;;
26038;SDS011;13815;52.374;4.882;2023-02-28T14:19:26;58.88;;;36.60;;
26038;SDS011;13815;52.374;4.882;2023-02-28T14:22:05;61.90;;;40.35;;
26038;SDS011;13815;52.374;4.882;2023-02-28T14:36:20;60.13;;;39.60;;
26038;SDS011;13815;52.374;4.882;2023-02-28T14:38:52;67.03;;;43.50;;
26038;SDS011;13815;52.374;4.882;2023-02-28T14:41:30;63.73;;;40.97;;
26038;SDS011;13815;52.374;4.882;2023-02-28T14:44:00;60.08;;;38.58;;
26038;SDS011;13815;52.374;4.882;2023-02-28T14:46:36;60.05;;;38.67;;
26038;SDS011;13815;52.374;4.882;2023-02-28T14:49:03;68.72;;;41.50;;
26038;SDS011;13815;52.374;4.882;2023-02-28T14:51:29;60.97;;;38.78;;
26038;SDS011;13815;52.374;4.882;2023-02-28T14:53:59;63.67;;;41.65;;
26038;SDS011;13815;52.374;4.882;2023-02-28T14:56:32;66.22;;;41.22;;
26038;SDS011;13815;52.374;4.882;2023-02-28T14:59:01;60.50;;;38.28;;
26038;SDS011;13815;52.374;4.882;2023-02-28T15:01:26;68.03;;;41.10;;
26038;SDS011;13815;52.374;4.882;2023-02-28T15:04:03;64.05;;;41.95;;
26038;SDS011;13815;52.374;4.882;2023-02-28T15:06:31;71.43;;;41.65;;
26038;SDS011;13815;52.374;4.882;2023-02-28T15:09:13;64.72;;;42.50;;
26038;SDS011;13815;52.374;4.882;2023-02-28T15:14:05;63.50;;;40.50;;
26038;SDS011;13815;52.374;4.882;2023-02-28T15:16:32;63.58;;;42.03;;
26038;SDS011;13815;52.374;4.882;2023-02-28T15:19:02;73.22;;;41.50;;
26038;SDS011;13815;52.374;4.882;2023-02-28T15:21:37;61.92;;;39.35;;
26038;SDS011;13815;52.374;4.882;2023-02-28T15:24:16;64.20;;;40.22;;
26038;SDS011;13815;52.374;4.882;2023-02-28T15:26:50;61.95;;;39.65;;
26038;SDS011;13815;52.374;4.882;2023-02-28T15:29:20;68.72;;;39.88;;
26038;SDS011;13815;52.374;4.882;2023-02-28T15:31:59;65.03;;;40.63;;
26038;SDS011;13815;52.374;4.882;2023-02-28T15:34:34;63.67;;;38.25;;
26038;SDS011;13815;52.374;4.882;2023-02-28T15:37:00;64.85;;;41.03;;
26038;SDS011;13815;52.374;4.882;2023-02-28T15:39:27;63.67;;;39.17;;
26038;SDS011;13815;52.374;4.882;2023-02-28T15:42:12;68.28;;;42.25;;
26038;SDS011;13815;52.374;4.882;2023-02-28T15:44:41;61.83;;;39.35;;
26038;SDS011;13815;52.374;4.882;2023-02-28T15:47:29;62.22;;;40.42;;
26038;SDS011;13815;52.374;4.882;2023-02-28T15:49:55;62.53;;;39.72;;
26038;SDS011;13815;52.374;4.882;2023-02-28T15:52:26;63.83;;;40.90;;
26038;SDS011;13815;52.374;4.882;2023-02-28T15:55:09;66.57;;;38.45;;
26038;SDS011;13815;52.374;4.882;2023-02-28T15:57:38;63.58;;;41.80;;
26038;SDS011;13815;52.374;4.882;2023-02-28T16:00:04;59.33;;;40.40;;
26038;SDS011;13815;52.374;4.882;2023-02-28T16:02:35;61.97;;;39.53;;
26038;SDS011;13815;52.374;4.882;2023-02-28T16:07:39;61.90;;;38.63;;
26038;SDS011;13815;52.374;4.882;2023-02-28T16:10:08;55.10;;;37.08;;
26038;SDS011;13815;52.374;4.882;2023-02-28T16:12:35;54.83;;;38.10;;
26038;SDS011;13815;52.374;4.882;2023-02-28T16:15:05;55.22;;;34.25;;
26038;SDS011;13815;52.374;4.882;2023-02-28T16:17:33;57.10;;;38.85;;
26038;SDS011;13815;52.374;4.882;2023-02-28T16:20:00;59.13;;;38.08;;
26038;SDS011;13815;52.374;4.882;2023-02-28T16:22:25;57.38;;;39.28;;
26038;SDS011;13815;52.374;4.882;2023-02-28T16:24:51;55.38;;;36.85;;
26038;SDS011;13815;52.374;4.882;2023-02-28T16:27:32;58.58;;;38.28;;
26038;SDS011;13815;52.374;4.882;2023-02-28T16:30:01;58.22;;;38.75;;
26038;SDS011;13815;52.374;4.882;2023-02-28T16:32:27;53.10;;;34.40;;
26038;SDS011;13815;52.374;4.882;2023-02-28T16:34:53;56.28;;;35.90;;
26038;SDS011;13815;52.374;4.882;2023-02-28T16:37:18;56.00;;;35.45;;
26038;SDS011;13815;52.374;4.882;2023-02-28T16:39:45;59.88;;;36.45;;
26038;SDS011;13815;52.374;4.882;2023-02-28T16:42:14;56.03;;;37.75;;
26038;SDS011;13815;52.374;4.882;2023-02-28T16:44:41;57.40;;;39.25;;
26038;SDS011;13815;52.374;4.882;2023-02-28T16:47:08;58.05;;;37.83;;
26038;SDS011;13815;52.374;4.882;2023-02-28T16:49:35;55.72;;;37.10;;
26038;SDS011;13815;52.374;4.882;2023-02-28T16:52:00;52.92;;;33.50;;
26038;SDS011;13815;52.374;4.882;2023-02-28T16:54:25;54.05;;;34.63;;
26038;SDS011;13815;52.374;4.882;2023-02-28T16:56:51;54.67;;;35.65;;
26038;SDS011;13815;52.374;4.882;2023-02-28T16:59:18;58.92;;;37.60;;
26038;SDS011;13815;52.374;4.882;2023-02-28T17:01:47;54.45;;;36.78;;
26038;SDS011;13815;52.374;4.882;2023-02-28T17:04:14;57.65;;;35.45;;
26038;SDS011;13815;52.374;4.882;2023-02-28T17:06:40;53.95;;;34.35;;